Overview Statistics Trail Chart Weather Telemetry Raw packets
 

This is the latest recevied weather packets stored in our database for station/object KO6HRZ. If no packets are shown the sender has not sent any weather packets the latest 10 day(s).

<< 40 41 42 43 44 45 46 >>
Time Temp. Humidity Pressure Rain* Wind** Luminosity Snow
1788055804 26.11° C 43% 1009.3 hPa 0 mm - 18 W/m² -
1788055198 26.67° C 41% 1009.3 hPa 0 mm - 23 W/m² -
1788054595 27.78° C 38% 1009.6 hPa 0 mm - 28 W/m² -
1788053993 28.33° C 35% 1009.3 hPa 0 mm - 32 W/m² -
1788053388 29.44° C 34% 1009.1 hPa 0 mm - 36 W/m² -
1788052786 29.44° C 34% 1009.3 hPa 0 mm - 136 W/m² -
1788052182 30° C 33% 1009.6 hPa 0 mm - 108 W/m² -
1788051576 31.11° C 32% 1009.5 hPa 0 mm - 162 W/m² -
1788050974 31.11° C 31% 1009.5 hPa 0 mm - 43 W/m² -
1788050368 31.67° C 29% 1009.5 hPa 0 mm - 249 W/m² -
1788049766 32.22° C 32% 1009.4 hPa 0 mm - 282 W/m² -
1788049163 31.67° C 33% 1009.4 hPa 0 mm - 300 W/m² -
1788048558 32.22° C 32% 1009.4 hPa 0 mm - 199 W/m² -
1788047954 32.22° C 30% 1009.7 hPa 0 mm - 50 W/m² -
1788047348 33.89° C 28% 1009.4 hPa 0 mm - 89 W/m² -
1788046743 33.33° C 28% 1009.6 hPa 0 mm - 259 W/m² -
1788046141 33.33° C 27% 1009.7 hPa 0 mm - 99 W/m² -
1788045537 33.33° C 27% 1009.6 hPa 0 mm - 97 W/m² -
1788044934 34.44° C 25% 1009.7 hPa 0 mm - 120 W/m² -
1788044332 33.89° C 26% 1009.9 hPa 0 mm - 546 W/m² -
1788043730 34.44° C 24% 1010.1 hPa 0 mm - 599 W/m² -
1788043129 33.89° C 25% 1010.1 hPa 0 mm - 627 W/m² -
1788042524 34.44° C 24% 1010.4 hPa 0 mm - 652 W/m² -
1788041921 33.33° C 24% 1010.4 hPa 0 mm - 672 W/m² -
1788041316 33.33° C 25% 1010.8 hPa 0 mm - 687 W/m² -

* Rain latest hour (hover to see other rain measurements)
** Current wind speed in m/s (hover to see current wind gust speed)